createdAt,value
2023-04-26T00:03:14.745Z,9.43
2023-04-26T00:08:19.909Z,13.60
2023-04-26T00:13:21.881Z,13.57
2023-04-26T00:18:23.828Z,10.77
2023-04-26T00:28:31.741Z,8.18
2023-04-26T00:33:33.902Z,14.18
2023-04-26T00:38:36.112Z,8.23
2023-04-26T00:43:38.514Z,7.97
2023-04-26T00:48:41.268Z,10.45
2023-04-26T00:53:43.568Z,10.75
2023-04-26T00:58:46.396Z,8.05
2023-04-26T01:05:18.262Z,10.85
2023-04-26T01:10:21.445Z,10.75
2023-04-26T01:15:24.732Z,8.70
2023-04-26T01:20:27.127Z,8.40
2023-04-26T01:25:30.150Z,7.00
2023-04-26T01:30:32.334Z,10.15
2023-04-26T01:35:38.231Z,9.48
2023-04-26T01:40:43.729Z,5.15
2023-04-26T01:45:48.604Z,8.50
2023-04-26T01:51:05.634Z,7.10
2023-04-26T01:56:08.851Z,9.57
2023-04-26T02:01:12.700Z,7.97
2023-04-26T02:06:17.148Z,4.57
2023-04-26T02:11:19.613Z,10.85
2023-04-26T02:16:23.027Z,5.78
2023-04-26T02:21:58.000Z,7.47
2023-04-26T02:27:06.222Z,7.93
2023-04-26T02:32:10.455Z,7.85
2023-04-26T02:42:14.206Z,8.55
2023-04-26T02:47:16.927Z,9.02
2023-04-26T02:52:19.017Z,8.95
2023-04-26T03:02:23.317Z,7.63
2023-04-26T03:07:25.902Z,6.07
2023-04-26T03:12:28.474Z,7.30
2023-04-26T03:17:30.808Z,8.40
2023-04-26T03:22:34.410Z,7.82
2023-04-26T03:27:36.558Z,12.95
2023-04-26T03:32:40.959Z,9.02
2023-04-26T03:37:43.551Z,6.95
2023-04-26T03:42:48.187Z,9.15
2023-04-26T03:47:51.078Z,14.35
2023-04-26T03:52:54.070Z,14.73
2023-04-26T03:57:56.081Z,12.00
2023-04-26T04:08:22.702Z,10.02
2023-04-26T04:13:25.002Z,12.75
2023-04-26T04:18:27.461Z,8.38
2023-04-26T04:23:29.512Z,10.52
2023-04-26T04:33:34.951Z,10.48
2023-04-26T04:38:37.398Z,10.52
2023-04-26T04:43:40.831Z,10.13
2023-04-26T04:48:44.515Z,10.15
2023-04-26T04:53:46.853Z,8.40
2023-04-26T04:58:49.229Z,10.15
2023-04-26T05:03:57.838Z,14.00
2023-04-26T05:09:01.715Z,10.40
2023-04-26T05:14:07.189Z,11.68
2023-04-26T05:19:09.787Z,12.27
2023-04-26T05:24:12.802Z,9.25
2023-04-26T05:29:15.763Z,13.38
2023-04-26T05:34:50.232Z,11.52
2023-04-26T05:39:52.528Z,11.82
2023-04-26T05:44:59.027Z,14.02
2023-04-26T05:50:02.466Z,7.75
2023-04-26T05:55:06.021Z,10.15
2023-04-26T06:00:09.979Z,11.93
2023-04-26T06:05:20.120Z,11.82
2023-04-26T06:10:23.080Z,9.55
2023-04-26T06:15:25.485Z,8.93
2023-04-26T06:20:27.900Z,6.20
2023-04-26T06:25:29.952Z,13.00
2023-04-26T06:30:32.867Z,10.73
2023-04-26T06:35:43.057Z,11.35
2023-04-26T06:40:46.797Z,10.30
2023-04-26T06:45:49.708Z,9.32
2023-04-26T06:50:54.599Z,8.65
2023-04-26T07:01:00.231Z,9.25
2023-04-26T07:06:02.484Z,12.35
2023-04-26T07:11:10.441Z,7.00
2023-04-26T07:16:12.722Z,6.70
2023-04-26T07:21:15.406Z,5.35
2023-04-26T07:26:17.603Z,7.53
2023-04-26T07:31:20.664Z,7.53
2023-04-26T07:36:24.559Z,8.15
2023-04-26T07:41:27.184Z,7.72
2023-04-26T07:46:29.340Z,5.50
2023-04-26T07:51:32.048Z,5.18
2023-04-26T07:56:34.555Z,3.88
2023-04-26T08:01:37.336Z,4.53
2023-04-26T08:06:39.468Z,4.40
2023-04-26T08:11:42.217Z,3.05
2023-04-26T08:16:44.683Z,4.10
2023-04-26T08:21:46.816Z,2.75
2023-04-26T08:26:49.077Z,3.83
2023-04-26T08:31:51.128Z,2.47
2023-04-26T08:36:53.702Z,3.92
2023-04-26T08:42:00.050Z,3.08
2023-04-26T08:47:38.610Z,2.53
2023-04-26T08:52:42.295Z,4.22
2023-04-26T08:57:47.652Z,4.30
2023-04-26T09:02:52.150Z,6.05
2023-04-26T09:08:02.293Z,4.82
2023-04-26T09:13:04.398Z,4.15
2023-04-26T09:18:23.644Z,2.38
2023-04-26T09:23:25.770Z,4.43
2023-04-26T09:28:27.746Z,3.33
2023-04-26T09:33:29.911Z,4.85
2023-04-26T09:38:42.716Z,3.67
2023-04-26T09:43:44.871Z,4.22
2023-04-26T09:49:00.941Z,2.47
2023-04-26T10:24:45.465Z,5.28
2023-04-26T10:30:10.235Z,5.53
2023-04-26T10:35:13.869Z,3.80
2023-04-26T10:40:25.872Z,2.80
2023-04-26T10:45:30.307Z,4.28
2023-04-26T10:50:32.664Z,7.05
2023-04-26T10:55:46.790Z,7.25
2023-04-26T11:01:05.160Z,5.35
2023-04-26T11:06:50.918Z,4.85
2023-04-26T11:12:33.888Z,4.60
2023-04-26T11:35:57.938Z,6.82
2023-04-26T11:51:52.469Z,3.72
2023-04-26T11:56:54.900Z,3.92
2023-04-26T12:07:07.108Z,4.30
2023-04-26T12:12:09.262Z,8.07
2023-04-26T12:17:15.246Z,5.90
2023-04-26T12:22:22.158Z,4.97
2023-04-26T12:27:24.596Z,4.25
2023-04-26T12:32:27.113Z,4.00
2023-04-26T12:37:32.004Z,4.38
2023-04-26T12:42:34.109Z,5.38
2023-04-26T12:47:36.364Z,4.68
2023-04-26T12:52:41.694Z,7.05
2023-04-26T12:57:45.183Z,2.53
2023-04-26T13:02:47.605Z,3.13
2023-04-26T13:07:49.866Z,3.03
2023-04-26T13:12:53.929Z,3.28
2023-04-26T13:17:58.902Z,3.13
2023-04-26T13:23:00.927Z,5.45
2023-04-26T13:28:03.493Z,6.35
2023-04-26T13:33:05.649Z,6.63
2023-04-26T13:38:07.756Z,3.95
2023-04-26T13:43:09.909Z,3.72
2023-04-26T13:48:11.893Z,2.45
2023-04-26T13:53:14.026Z,2.95
2023-04-26T13:58:16.421Z,1.85
2023-04-26T14:03:25.632Z,4.47
2023-04-26T14:08:27.791Z,3.28
2023-04-26T14:13:32.462Z,3.58
2023-04-26T14:18:34.938Z,4.50
2023-04-26T14:23:37.260Z,3.53
2023-04-26T14:28:41.173Z,2.80
2023-04-26T14:33:43.306Z,3.47
2023-04-26T14:38:45.876Z,4.40
2023-04-26T14:43:47.994Z,2.58
2023-04-26T14:48:49.961Z,3.38
2023-04-26T14:53:52.352Z,5.35
2023-04-26T14:58:54.509Z,5.18
2023-04-26T15:03:59.925Z,3.80
2023-04-26T15:09:02.781Z,3.63
2023-04-26T15:14:04.677Z,3.78
2023-04-26T15:19:08.762Z,2.97
2023-04-26T15:24:11.404Z,4.22
2023-04-26T15:29:13.688Z,3.30
2023-04-26T15:34:19.095Z,2.92
2023-04-26T15:39:21.088Z,4.00
2023-04-26T15:44:23.151Z,3.88
2023-04-26T15:49:27.902Z,4.07
2023-04-26T15:54:29.913Z,3.88
2023-04-26T15:59:32.673Z,4.72
2023-04-26T16:04:34.823Z,4.82
2023-04-26T16:09:37.369Z,15.65
2023-04-26T16:14:39.298Z,5.22
2023-04-26T16:19:41.428Z,5.55
2023-04-26T16:24:43.626Z,4.53
2023-04-26T16:29:47.563Z,6.47
2023-04-26T16:34:49.819Z,3.00
2023-04-26T16:39:55.948Z,4.63
2023-04-26T16:44:58.080Z,5.93
2023-04-26T16:50:00.339Z,3.20
2023-04-26T16:55:03.051Z,4.97
2023-04-26T17:00:08.099Z,3.97
2023-04-26T17:05:10.972Z,3.53
2023-04-26T17:10:13.067Z,3.72
2023-04-26T17:15:18.124Z,3.92
2023-04-26T17:20:20.079Z,4.82
2023-04-26T17:25:23.614Z,4.90
2023-04-26T17:30:25.871Z,3.80
2023-04-26T17:35:27.950Z,2.45
2023-04-26T17:40:29.981Z,4.05
2023-04-26T17:45:32.259Z,2.47
2023-04-26T17:50:34.482Z,2.47
2023-04-26T17:55:36.554Z,2.92
2023-04-26T18:00:38.605Z,3.67
2023-04-26T18:05:40.782Z,3.78
2023-04-26T18:10:48.609Z,5.95
2023-04-26T18:15:51.518Z,2.75
2023-04-26T18:20:53.484Z,2.40
2023-04-26T18:30:59.015Z,1.58
2023-04-26T18:36:01.048Z,2.85
2023-04-26T18:46:14.749Z,4.57
2023-04-26T18:51:16.917Z,3.00
2023-04-26T18:56:18.953Z,3.60
2023-04-26T19:01:21.513Z,3.55
2023-04-26T19:06:23.552Z,3.95
2023-04-26T19:11:25.522Z,2.78
2023-04-26T19:16:27.797Z,4.07
2023-04-26T19:21:30.058Z,4.32
2023-04-26T19:26:36.720Z,4.57
2023-04-26T19:31:38.825Z,5.57
2023-04-26T19:36:42.081Z,7.35
2023-04-26T19:41:45.235Z,7.97
2023-04-26T19:46:47.510Z,8.02
2023-04-26T19:51:49.474Z,6.18
2023-04-26T19:56:52.068Z,6.38
2023-04-26T20:01:54.349Z,4.43
2023-04-26T20:06:57.338Z,3.83
2023-04-26T20:12:00.242Z,3.70
2023-04-26T20:17:02.657Z,3.83
2023-04-26T20:22:04.848Z,3.55
2023-04-26T20:27:06.998Z,5.47
2023-04-26T20:32:09.058Z,3.53
2023-04-26T20:37:11.032Z,3.85
2023-04-26T20:42:13.147Z,3.67
2023-04-26T20:47:15.568Z,2.50
2023-04-26T20:52:17.637Z,2.60
2023-04-26T22:45:01.426Z,7.45
2023-04-26T22:50:04.607Z,2.13
2023-04-26T22:55:10.082Z,6.47
2023-04-26T23:00:15.231Z,2.58
2023-04-26T23:05:17.631Z,4.07
2023-04-26T23:10:19.785Z,3.38
2023-04-26T23:15:22.092Z,4.30
2023-04-26T23:20:24.226Z,3.83
2023-04-26T23:25:26.792Z,2.17
2023-04-26T23:30:29.057Z,3.65
2023-04-26T23:35:31.394Z,2.63
2023-04-26T23:40:33.632Z,4.75
2023-04-26T23:45:36.017Z,3.38
2023-04-26T23:50:39.161Z,4.30
2023-04-26T23:55:41.527Z,5.72
